sensor_id;sensor_type;location;lat;lon;timestamp;pressure;altitude;pressure_sealevel;temperature;humidity
20119;BME280;10220;42.716;23.306;2023-04-10T00:02:21;95374.78;;;8.21;100.00
20119;BME280;10220;42.716;23.306;2023-04-10T00:04:50;95375.94;;;8.19;100.00
20119;BME280;10220;42.716;23.306;2023-04-10T00:07:15;95380.13;;;8.20;100.00
20119;BME280;10220;42.716;23.306;2023-04-10T00:09:41;95376.56;;;8.21;100.00
20119;BME280;10220;42.716;23.306;2023-04-10T00:12:06;95357.97;;;8.11;100.00
20119;BME280;10220;42.716;23.306;2023-04-10T00:14:32;95368.50;;;8.30;100.00
20119;BME280;10220;42.716;23.306;2023-04-10T00:16:57;95366.78;;;8.17;100.00
20119;BME280;10220;42.716;23.306;2023-04-10T00:19:23;95363.59;;;8.15;100.00
20119;BME280;10220;42.716;23.306;2023-04-10T00:21:51;95376.84;;;8.12;100.00
20119;BME280;10220;42.716;23.306;2023-04-10T00:24:16;95370.91;;;8.32;100.00
20119;BME280;10220;42.716;23.306;2023-04-10T00:26:42;95363.28;;;8.24;100.00
20119;BME280;10220;42.716;23.306;2023-04-10T00:29:07;95365.88;;;8.10;100.00
20119;BME280;10220;42.716;23.306;2023-04-10T00:31:36;95362.78;;;8.14;100.00
20119;BME280;10220;42.716;23.306;2023-04-10T00:34:01;95364.44;;;8.21;100.00
20119;BME280;10220;42.716;23.306;2023-04-10T00:36:27;95364.38;;;8.15;100.00
20119;BME280;10220;42.716;23.306;2023-04-10T00:38:55;95368.28;;;8.11;100.00
20119;BME280;10220;42.716;23.306;2023-04-10T00:41:21;95356.28;;;8.18;100.00
20119;BME280;10220;42.716;23.306;2023-04-10T00:43:48;95378.69;;;8.18;100.00
20119;BME280;10220;42.716;23.306;2023-04-10T00:46:14;95374.88;;;8.14;100.00
20119;BME280;10220;42.716;23.306;2023-04-10T00:48:40;95376.94;;;8.18;100.00
20119;BME280;10220;42.716;23.306;2023-04-10T00:51:05;95378.25;;;8.14;100.00
20119;BME280;10220;42.716;23.306;2023-04-10T00:53:31;95369.19;;;8.04;100.00
20119;BME280;10220;42.716;23.306;2023-04-10T00:55:57;95364.41;;;8.01;100.00
20119;BME280;10220;42.716;23.306;2023-04-10T00:58:24;95369.19;;;8.04;100.00
20119;BME280;10220;42.716;23.306;2023-04-10T01:00:51;95371.16;;;8.16;100.00
20119;BME280;10220;42.716;23.306;2023-04-10T01:03:17;95359.75;;;8.11;100.00
20119;BME280;10220;42.716;23.306;2023-04-10T01:05:49;95340.81;;;8.04;100.00
20119;BME280;10220;42.716;23.306;2023-04-10T01:11:26;95338.28;;;7.89;100.00
20119;BME280;10220;42.716;23.306;2023-04-10T01:16:35;95341.75;;;7.61;100.00
20119;BME280;10220;42.716;23.306;2023-04-10T01:19:14;95334.25;;;7.66;100.00
20119;BME280;10220;42.716;23.306;2023-04-10T01:21:43;95343.31;;;7.62;100.00
20119;BME280;10220;42.716;23.306;2023-04-10T01:29:45;95330.47;;;7.83;100.00
20119;BME280;10220;42.716;23.306;2023-04-10T01:32:15;95332.38;;;7.74;100.00
20119;BME280;10220;42.716;23.306;2023-04-10T01:34:54;95322.66;;;7.76;100.00
20119;BME280;10220;42.716;23.306;2023-04-10T01:37:24;95329.28;;;7.64;100.00
20119;BME280;10220;42.716;23.306;2023-04-10T01:40:13;95321.25;;;7.53;100.00
20119;BME280;10220;42.716;23.306;2023-04-10T01:42:44;95327.78;;;7.56;100.00
20119;BME280;10220;42.716;23.306;2023-04-10T01:45:17;95327.09;;;7.47;100.00
20119;BME280;10220;42.716;23.306;2023-04-10T01:47:44;95309.94;;;7.40;100.00
20119;BME280;10220;42.716;23.306;2023-04-10T01:50:10;95326.22;;;7.40;100.00
20119;BME280;10220;42.716;23.306;2023-04-10T01:52:36;95328.72;;;7.48;100.00
20119;BME280;10220;42.716;23.306;2023-04-10T01:55:02;95316.44;;;7.50;100.00
20119;BME280;10220;42.716;23.306;2023-04-10T01:57:29;95325.31;;;7.48;100.00
20119;BME280;10220;42.716;23.306;2023-04-10T01:59:56;95317.69;;;7.40;100.00
20119;BME280;10220;42.716;23.306;2023-04-10T02:02:22;95321.94;;;7.47;100.00
20119;BME280;10220;42.716;23.306;2023-04-10T02:04:47;95319.47;;;7.39;100.00
20119;BME280;10220;42.716;23.306;2023-04-10T02:07:19;95310.94;;;7.24;100.00
20119;BME280;10220;42.716;23.306;2023-04-10T02:10:00;95306.69;;;7.31;100.00
20119;BME280;10220;42.716;23.306;2023-04-10T02:12:34;95321.81;;;7.20;100.00
20119;BME280;10220;42.716;23.306;2023-04-10T02:15:02;95308.34;;;7.39;100.00
20119;BME280;10220;42.716;23.306;2023-04-10T02:17:30;95300.34;;;7.48;100.00
20119;BME280;10220;42.716;23.306;2023-04-10T02:19:57;95297.59;;;7.50;100.00
20119;BME280;10220;42.716;23.306;2023-04-10T02:22:24;95302.53;;;7.65;100.00
20119;BME280;10220;42.716;23.306;2023-04-10T02:24:51;95289.75;;;7.57;100.00
20119;BME280;10220;42.716;23.306;2023-04-10T02:27:30;95287.25;;;7.64;100.00
20119;BME280;10220;42.716;23.306;2023-04-10T02:29:55;95289.34;;;7.75;100.00
20119;BME280;10220;42.716;23.306;2023-04-10T02:32:22;95284.88;;;7.83;100.00
20119;BME280;10220;42.716;23.306;2023-04-10T02:34:47;95288.88;;;7.86;100.00
20119;BME280;10220;42.716;23.306;2023-04-10T02:37:13;95284.63;;;7.78;100.00
20119;BME280;10220;42.716;23.306;2023-04-10T02:39:38;95275.88;;;7.94;100.00
20119;BME280;10220;42.716;23.306;2023-04-10T02:42:03;95277.41;;;8.09;100.00
20119;BME280;10220;42.716;23.306;2023-04-10T02:44:29;95276.72;;;8.21;100.00
20119;BME280;10220;42.716;23.306;2023-04-10T02:46:55;95285.34;;;7.93;100.00
20119;BME280;10220;42.716;23.306;2023-04-10T02:49:20;95271.28;;;7.54;100.00
20119;BME280;10220;42.716;23.306;2023-04-10T02:51:45;95273.59;;;7.84;100.00
20119;BME280;10220;42.716;23.306;2023-04-10T02:56:56;95274.78;;;7.32;100.00
20119;BME280;10220;42.716;23.306;2023-04-10T02:59:22;95269.41;;;7.62;100.00
20119;BME280;10220;42.716;23.306;2023-04-10T03:01:50;95268.66;;;7.89;100.00
20119;BME280;10220;42.716;23.306;2023-04-10T03:04:19;95274.81;;;7.88;100.00
20119;BME280;10220;42.716;23.306;2023-04-10T03:06:44;95277.03;;;7.91;100.00
20119;BME280;10220;42.716;23.306;2023-04-10T03:09:10;95272.25;;;7.88;100.00
20119;BME280;10220;42.716;23.306;2023-04-10T03:11:36;95269.00;;;7.45;100.00
20119;BME280;10220;42.716;23.306;2023-04-10T03:14:01;95271.34;;;7.11;100.00
20119;BME280;10220;42.716;23.306;2023-04-10T03:16:27;95277.31;;;6.97;100.00
20119;BME280;10220;42.716;23.306;2023-04-10T03:18:52;95274.56;;;6.84;100.00
20119;BME280;10220;42.716;23.306;2023-04-10T03:21:18;95273.31;;;6.80;100.00
20119;BME280;10220;42.716;23.306;2023-04-10T03:23:43;95270.59;;;6.82;100.00
20119;BME280;10220;42.716;23.306;2023-04-10T03:26:08;95267.75;;;6.91;100.00
20119;BME280;10220;42.716;23.306;2023-04-10T03:28:34;95270.88;;;7.22;100.00
20119;BME280;10220;42.716;23.306;2023-04-10T03:31:01;95286.41;;;7.43;100.00
20119;BME280;10220;42.716;23.306;2023-04-10T03:33:27;95281.63;;;7.40;100.00
20119;BME280;10220;42.716;23.306;2023-04-10T03:35:52;95279.16;;;7.17;100.00
20119;BME280;10220;42.716;23.306;2023-04-10T03:38:18;95292.41;;;7.00;100.00
20119;BME280;10220;42.716;23.306;2023-04-10T03:40:43;95296.31;;;7.25;100.00
20119;BME280;10220;42.716;23.306;2023-04-10T03:43:09;95265.22;;;7.26;100.00
20119;BME280;10220;42.716;23.306;2023-04-10T03:45:35;95291.31;;;7.38;100.00
20119;BME280;10220;42.716;23.306;2023-04-10T03:48:00;95281.44;;;7.41;100.00
20119;BME280;10220;42.716;23.306;2023-04-10T03:50:26;95285.16;;;7.53;100.00
20119;BME280;10220;42.716;23.306;2023-04-10T03:52:51;95295.66;;;7.37;100.00
20119;BME280;10220;42.716;23.306;2023-04-10T03:55:17;95291.34;;;7.09;100.00
20119;BME280;10220;42.716;23.306;2023-04-10T03:57:45;95289.13;;;6.92;100.00
20119;BME280;10220;42.716;23.306;2023-04-10T04:00:15;95296.47;;;6.95;100.00
20119;BME280;10220;42.716;23.306;2023-04-10T04:02:41;95278.22;;;7.04;100.00
20119;BME280;10220;42.716;23.306;2023-04-10T04:05:06;95285.19;;;7.10;100.00
20119;BME280;10220;42.716;23.306;2023-04-10T04:07:32;95295.78;;;7.15;100.00
20119;BME280;10220;42.716;23.306;2023-04-10T04:10:00;95295.69;;;7.08;100.00
20119;BME280;10220;42.716;23.306;2023-04-10T04:12:26;95311.06;;;7.02;100.00
20119;BME280;10220;42.716;23.306;2023-04-10T04:14:51;95300.81;;;7.23;100.00
20119;BME280;10220;42.716;23.306;2023-04-10T04:17:17;95313.25;;;6.76;100.00
20119;BME280;10220;42.716;23.306;2023-04-10T04:19:43;95295.03;;;6.49;100.00
20119;BME280;10220;42.716;23.306;2023-04-10T04:22:09;95313.22;;;6.47;100.00
20119;BME280;10220;42.716;23.306;2023-04-10T04:24:35;95302.81;;;6.41;100.00
20119;BME280;10220;42.716;23.306;2023-04-10T04:27:00;95309.94;;;6.53;100.00
20119;BME280;10220;42.716;23.306;2023-04-10T04:29:26;95304.75;;;6.76;100.00
20119;BME280;10220;42.716;23.306;2023-04-10T04:31:52;95313.25;;;6.76;100.00
20119;BME280;10220;42.716;23.306;2023-04-10T04:34:17;95298.19;;;6.88;100.00
20119;BME280;10220;42.716;23.306;2023-04-10T04:36:43;95307.41;;;7.11;100.00
20119;BME280;10220;42.716;23.306;2023-04-10T04:39:08;95303.41;;;7.23;100.00
20119;BME280;10220;42.716;23.306;2023-04-10T04:41:33;95310.03;;;7.46;100.00
20119;BME280;10220;42.716;23.306;2023-04-10T04:44:00;95302.66;;;7.43;100.00
20119;BME280;10220;42.716;23.306;2023-04-10T04:46:26;95304.94;;;7.88;100.00
20119;BME280;10220;42.716;23.306;2023-04-10T04:48:51;95305.88;;;7.80;100.00
20119;BME280;10220;42.716;23.306;2023-04-10T04:51:17;95322.88;;;7.60;100.00
20119;BME280;10220;42.716;23.306;2023-04-10T04:53:42;95317.25;;;8.07;100.00
20119;BME280;10220;42.716;23.306;2023-04-10T04:56:08;95321.50;;;8.14;100.00
20119;BME280;10220;42.716;23.306;2023-04-10T04:58:33;95306.47;;;8.18;100.00
20119;BME280;10220;42.716;23.306;2023-04-10T05:00:59;95320.94;;;8.60;100.00
20119;BME280;10220;42.716;23.306;2023-04-10T05:03:25;95331.25;;;8.87;100.00
20119;BME280;10220;42.716;23.306;2023-04-10T05:05:50;95328.59;;;8.75;100.00
20119;BME280;10220;42.716;23.306;2023-04-10T05:08:16;95331.31;;;8.94;100.00
20119;BME280;10220;42.716;23.306;2023-04-10T05:10:41;95331.88;;;9.23;100.00
20119;BME280;10220;42.716;23.306;2023-04-10T05:13:06;95321.47;;;9.50;100.00
20119;BME280;10220;42.716;23.306;2023-04-10T05:15:32;95337.28;;;9.75;100.00
20119;BME280;10220;42.716;23.306;2023-04-10T05:17:57;95335.22;;;9.51;100.00
20119;BME280;10220;42.716;23.306;2023-04-10T05:20:23;95318.88;;;9.44;100.00
20119;BME280;10220;42.716;23.306;2023-04-10T05:22:49;95339.44;;;9.58;100.00
20119;BME280;10220;42.716;23.306;2023-04-10T05:25:14;95338.41;;;9.53;100.00
20119;BME280;10220;42.716;23.306;2023-04-10T05:27:40;95335.81;;;9.53;100.00
20119;BME280;10220;42.716;23.306;2023-04-10T05:30:05;95318.88;;;8.77;100.00
20119;BME280;10220;42.716;23.306;2023-04-10T05:32:31;95332.03;;;9.15;100.00
20119;BME280;10220;42.716;23.306;2023-04-10T05:34:56;95333.88;;;9.21;100.00
20119;BME280;10220;42.716;23.306;2023-04-10T05:37:22;95337.97;;;9.43;100.00
20119;BME280;10220;42.716;23.306;2023-04-10T05:39:47;95339.56;;;9.44;100.00
20119;BME280;10220;42.716;23.306;2023-04-10T05:42:13;95333.16;;;9.40;100.00
20119;BME280;10220;42.716;23.306;2023-04-10T05:44:38;95342.66;;;9.67;100.00
20119;BME280;10220;42.716;23.306;2023-04-10T05:47:04;95346.34;;;9.51;100.00
20119;BME280;10220;42.716;23.306;2023-04-10T05:49:29;95339.22;;;9.20;100.00
20119;BME280;10220;42.716;23.306;2023-04-10T05:51:55;95326.44;;;9.05;100.00
20119;BME280;10220;42.716;23.306;2023-04-10T05:54:20;95331.09;;;9.23;100.00
20119;BME280;10220;42.716;23.306;2023-04-10T05:56:46;95341.78;;;9.13;100.00
20119;BME280;10220;42.716;23.306;2023-04-10T05:59:11;95326.69;;;9.17;100.00
20119;BME280;10220;42.716;23.306;2023-04-10T06:01:38;95341.22;;;8.90;100.00
20119;BME280;10220;42.716;23.306;2023-04-10T06:04:04;95342.41;;;9.22;100.00
20119;BME280;10220;42.716;23.306;2023-04-10T06:06:30;95335.66;;;9.67;100.00
20119;BME280;10220;42.716;23.306;2023-04-10T06:08:55;95354.75;;;10.00;100.00
20119;BME280;10220;42.716;23.306;2023-04-10T06:11:21;95329.06;;;10.05;100.00
20119;BME280;10220;42.716;23.306;2023-04-10T06:13:46;95345.84;;;10.41;100.00
20119;BME280;10220;42.716;23.306;2023-04-10T06:16:12;95356.44;;;10.59;100.00
20119;BME280;10220;42.716;23.306;2023-04-10T06:18:39;95350.06;;;11.07;100.00
20119;BME280;10220;42.716;23.306;2023-04-10T06:21:05;95343.84;;;10.17;100.00
20119;BME280;10220;42.716;23.306;2023-04-10T06:23:31;95325.97;;;10.54;100.00
20119;BME280;10220;42.716;23.306;2023-04-10T06:25:56;95345.25;;;11.10;100.00
20119;BME280;10220;42.716;23.306;2023-04-10T06:28:22;95340.22;;;11.47;100.00
20119;BME280;10220;42.716;23.306;2023-04-10T06:30:47;95353.41;;;11.39;100.00
20119;BME280;10220;42.716;23.306;2023-04-10T06:33:13;95346.28;;;10.77;100.00
20119;BME280;10220;42.716;23.306;2023-04-10T06:35:38;95358.41;;;10.31;100.00
20119;BME280;10220;42.716;23.306;2023-04-10T06:38:04;95342.88;;;10.31;100.00
20119;BME280;10220;42.716;23.306;2023-04-10T06:40:29;95357.63;;;10.44;100.00
20119;BME280;10220;42.716;23.306;2023-04-10T06:42:55;95365.00;;;10.59;100.00
20119;BME280;10220;42.716;23.306;2023-04-10T06:45:21;95367.94;;;10.31;100.00
20119;BME280;10220;42.716;23.306;2023-04-10T06:47:46;95361.34;;;10.09;100.00
20119;BME280;10220;42.716;23.306;2023-04-10T06:50:12;95367.97;;;9.84;100.00
20119;BME280;10220;42.716;23.306;2023-04-10T06:52:37;95350.84;;;9.77;100.00
20119;BME280;10220;42.716;23.306;2023-04-10T06:55:03;95365.56;;;9.83;100.00
20119;BME280;10220;42.716;23.306;2023-04-10T06:57:28;95377.34;;;9.85;100.00
20119;BME280;10220;42.716;23.306;2023-04-10T06:59:54;95371.06;;;10.00;100.00
20119;BME280;10220;42.716;23.306;2023-04-10T07:02:20;95364.75;;;9.69;100.00
20119;BME280;10220;42.716;23.306;2023-04-10T07:04:45;95380.75;;;9.92;100.00
20119;BME280;10220;42.716;23.306;2023-04-10T07:07:10;95349.06;;;9.77;100.00
20119;BME280;10220;42.716;23.306;2023-04-10T07:09:38;95359.06;;;9.93;100.00
20119;BME280;10220;42.716;23.306;2023-04-10T07:12:03;95383.00;;;10.01;100.00
20119;BME280;10220;42.716;23.306;2023-04-10T07:14:32;95376.44;;;9.99;100.00
20119;BME280;10220;42.716;23.306;2023-04-10T07:16:58;95378.09;;;9.73;100.00
20119;BME280;10220;42.716;23.306;2023-04-10T07:19:24;95377.94;;;9.87;100.00
20119;BME280;10220;42.716;23.306;2023-04-10T07:21:49;95376.53;;;9.78;100.00
20119;BME280;10220;42.716;23.306;2023-04-10T07:24:16;95373.31;;;9.76;100.00
20119;BME280;10220;42.716;23.306;2023-04-10T07:26:43;95387.41;;;9.67;100.00
20119;BME280;10220;42.716;23.306;2023-04-10T07:29:08;95381.91;;;9.83;100.00
20119;BME280;10220;42.716;23.306;2023-04-10T07:31:34;95351.06;;;9.75;100.00
20119;BME280;10220;42.716;23.306;2023-04-10T07:34:01;95362.66;;;9.92;100.00
20119;BME280;10220;42.716;23.306;2023-04-10T07:36:26;95374.38;;;9.94;100.00
20119;BME280;10220;42.716;23.306;2023-04-10T07:38:52;95377.25;;;10.06;100.00
20119;BME280;10220;42.716;23.306;2023-04-10T07:41:17;95380.25;;;10.09;100.00
20119;BME280;10220;42.716;23.306;2023-04-10T07:43:42;95380.22;;;10.03;100.00
20119;BME280;10220;42.716;23.306;2023-04-10T07:46:08;95388.78;;;10.10;100.00
20119;BME280;10220;42.716;23.306;2023-04-10T07:48:33;95391.88;;;10.33;100.00
20119;BME280;10220;42.716;23.306;2023-04-10T07:50:59;95393.19;;;10.09;100.00
20119;BME280;10220;42.716;23.306;2023-04-10T07:53:24;95375.91;;;10.23;100.00
20119;BME280;10220;42.716;23.306;2023-04-10T07:55:50;95373.78;;;10.46;100.00
20119;BME280;10220;42.716;23.306;2023-04-10T07:58:17;95371.59;;;10.68;100.00
20119;BME280;10220;42.716;23.306;2023-04-10T08:00:43;95369.63;;;10.90;100.00
20119;BME280;10220;42.716;23.306;2023-04-10T08:03:08;95370.41;;;11.10;100.00
20119;BME280;10220;42.716;23.306;2023-04-10T08:05:33;95378.78;;;11.05;100.00
20119;BME280;10220;42.716;23.306;2023-04-10T08:07:59;95362.63;;;11.16;100.00
20119;BME280;10220;42.716;23.306;2023-04-10T08:10:24;95353.41;;;11.33;100.00
20119;BME280;10220;42.716;23.306;2023-04-10T08:12:50;95372.56;;;11.51;100.00
20119;BME280;10220;42.716;23.306;2023-04-10T08:15:16;95369.59;;;11.28;100.00
20119;BME280;10220;42.716;23.306;2023-04-10T08:17:42;95379.13;;;11.47;100.00
20119;BME280;10220;42.716;23.306;2023-04-10T08:20:09;95367.41;;;11.12;100.00
20119;BME280;10220;42.716;23.306;2023-04-10T08:22:34;95369.00;;;11.13;100.00
20119;BME280;10220;42.716;23.306;2023-04-10T08:25:00;95382.38;;;11.11;100.00
20119;BME280;10220;42.716;23.306;2023-04-10T08:27:25;95369.63;;;10.96;100.00
20119;BME280;10220;42.716;23.306;2023-04-10T08:29:50;95364.59;;;11.14;100.00
20119;BME280;10220;42.716;23.306;2023-04-10T08:32:16;95363.59;;;11.34;100.00
20119;BME280;10220;42.716;23.306;2023-04-10T08:34:41;95375.94;;;11.45;100.00
20119;BME280;10220;42.716;23.306;2023-04-10T08:37:07;95389.72;;;11.39;100.00
20119;BME280;10220;42.716;23.306;2023-04-10T08:39:42;95373.19;;;11.21;100.00
20119;BME280;10220;42.716;23.306;2023-04-10T08:42:08;95375.38;;;11.11;100.00
20119;BME280;10220;42.716;23.306;2023-04-10T08:44:33;95377.19;;;11.17;100.00
20119;BME280;10220;42.716;23.306;2023-04-10T08:47:01;95368.56;;;11.29;100.00
20119;BME280;10220;42.716;23.306;2023-04-10T08:52:21;95364.03;;;11.06;100.00
20119;BME280;10220;42.716;23.306;2023-04-10T08:54:50;95358.03;;;11.24;100.00
20119;BME280;10220;42.716;23.306;2023-04-10T08:57:18;95371.19;;;11.23;100.00
20119;BME280;10220;42.716;23.306;2023-04-10T08:59:48;95365.16;;;11.48;100.00
20119;BME280;10220;42.716;23.306;2023-04-10T09:02:14;95362.97;;;11.45;99.61
20119;BME280;10220;42.716;23.306;2023-04-10T09:04:49;95357.09;;;11.82;99.38
20119;BME280;10220;42.716;23.306;2023-04-10T09:07:15;95333.47;;;11.96;95.44
20119;BME280;10220;42.716;23.306;2023-04-10T09:09:41;95336.03;;;12.03;89.53
20119;BME280;10220;42.716;23.306;2023-04-10T09:12:07;95354.44;;;11.95;85.30
20119;BME280;10220;42.716;23.306;2023-04-10T09:14:34;95342.22;;;12.02;84.20
20119;BME280;10220;42.716;23.306;2023-04-10T09:17:22;95345.69;;;11.89;84.75
20119;BME280;10220;42.716;23.306;2023-04-10T09:19:57;95351.78;;;11.45;85.77
20119;BME280;10220;42.716;23.306;2023-04-10T09:22:31;95338.63;;;11.33;87.74
20119;BME280;10220;42.716;23.306;2023-04-10T09:24:57;95346.06;;;11.30;90.17
20119;BME280;10220;42.716;23.306;2023-04-10T09:27:34;95330.09;;;11.20;90.30
20119;BME280;10220;42.716;23.306;2023-04-10T09:30:01;95339.47;;;11.21;88.24
20119;BME280;10220;42.716;23.306;2023-04-10T09:32:43;95356.22;;;11.31;86.21
20119;BME280;10220;42.716;23.306;2023-04-10T09:35:11;95340.22;;;11.54;81.33
20119;BME280;10220;42.716;23.306;2023-04-10T09:37:37;95321.13;;;11.16;82.98
20119;BME280;10220;42.716;23.306;2023-04-10T09:40:05;95342.25;;;11.32;83.98
20119;BME280;10220;42.716;23.306;2023-04-10T09:42:31;95341.44;;;11.38;82.14
20119;BME280;10220;42.716;23.306;2023-04-10T09:44:57;95333.88;;;11.30;80.30
20119;BME280;10220;42.716;23.306;2023-04-10T09:47:23;95326.25;;;11.42;80.34
20119;BME280;10220;42.716;23.306;2023-04-10T09:49:49;95346.03;;;11.43;83.12
20119;BME280;10220;42.716;23.306;2023-04-10T09:52:27;95330.47;;;11.49;81.62
20119;BME280;10220;42.716;23.306;2023-04-10T09:54:55;95337.84;;;11.39;81.43
20119;BME280;10220;42.716;23.306;2023-04-10T09:57:22;95325.84;;;11.45;79.98
20119;BME280;10220;42.716;23.306;2023-04-10T09:59:53;95335.91;;;11.03;96.51
20119;BME280;10220;42.716;23.306;2023-04-10T10:02:20;95305.81;;;10.89;100.00
20119;BME280;10220;42.716;23.306;2023-04-10T10:04:49;95330.03;;;11.46;100.00
20119;BME280;10220;42.716;23.306;2023-04-10T10:07:20;95311.94;;;11.89;100.00
20119;BME280;10220;42.716;23.306;2023-04-10T10:09:48;95326.09;;;11.93;97.07
20119;BME280;10220;42.716;23.306;2023-04-10T10:12:32;95322.88;;;11.98;96.68
20119;BME280;10220;42.716;23.306;2023-04-10T10:17:36;95316.13;;;11.90;91.96
20119;BME280;10220;42.716;23.306;2023-04-10T10:20:10;95302.81;;;12.11;90.26
20119;BME280;10220;42.716;23.306;2023-04-10T10:22:37;95309.03;;;11.73;92.28
20119;BME280;10220;42.716;23.306;2023-04-10T10:25:03;95308.28;;;11.97;93.92
20119;BME280;10220;42.716;23.306;2023-04-10T10:27:35;95301.06;;;11.62;93.34
20119;BME280;10220;42.716;23.306;2023-04-10T10:30:02;95309.97;;;11.15;96.09
20119;BME280;10220;42.716;23.306;2023-04-10T10:32:28;95306.34;;;11.23;95.69
20119;BME280;10220;42.716;23.306;2023-04-10T10:34:54;95314.72;;;11.38;96.21
20119;BME280;10220;42.716;23.306;2023-04-10T10:37:22;95297.00;;;11.15;94.64
20119;BME280;10220;42.716;23.306;2023-04-10T10:40:05;95305.56;;;11.29;95.24
20119;BME280;10220;42.716;23.306;2023-04-10T10:42:41;95284.78;;;11.35;97.03
20119;BME280;10220;42.716;23.306;2023-04-10T10:45:16;95299.50;;;11.41;88.94
20119;BME280;10220;42.716;23.306;2023-04-10T10:47:50;95266.84;;;11.27;86.28
20119;BME280;10220;42.716;23.306;2023-04-10T10:50:16;95283.16;;;11.47;82.31
20119;BME280;10220;42.716;23.306;2023-04-10T10:52:48;95285.94;;;11.52;80.70
20119;BME280;10220;42.716;23.306;2023-04-10T10:55:32;95270.09;;;11.73;78.96
20119;BME280;10220;42.716;23.306;2023-04-10T10:58:05;95276.06;;;12.11;81.58
20119;BME280;10220;42.716;23.306;2023-04-10T11:05:54;95244.91;;;12.59;72.78
20119;BME280;10220;42.716;23.306;2023-04-10T11:11:11;95242.72;;;13.58;72.13
20119;BME280;10220;42.716;23.306;2023-04-10T11:16:19;95244.81;;;12.96;80.24
20119;BME280;10220;42.716;23.306;2023-04-10T11:24:00;95242.22;;;12.72;80.83
20119;BME280;10220;42.716;23.306;2023-04-10T11:31:45;95243.72;;;12.37;74.49
20119;BME280;10220;42.716;23.306;2023-04-10T11:34:10;95231.16;;;12.10;74.84
20119;BME280;10220;42.716;23.306;2023-04-10T11:36:41;95228.50;;;12.41;74.84
20119;BME280;10220;42.716;23.306;2023-04-10T11:39:11;95218.97;;;12.77;76.58
20119;BME280;10220;42.716;23.306;2023-04-10T11:41:42;95237.53;;;13.41;71.42
20119;BME280;10220;42.716;23.306;2023-04-10T11:44:10;95223.66;;;13.47;72.49
20119;BME280;10220;42.716;23.306;2023-04-10T11:46:41;95232.09;;;13.60;73.07
20119;BME280;10220;42.716;23.306;2023-04-10T11:49:08;95246.47;;;13.27;71.28
20119;BME280;10220;42.716;23.306;2023-04-10T11:51:34;95239.28;;;13.29;74.96
20119;BME280;10220;42.716;23.306;2023-04-10T11:54:20;95237.31;;;13.24;75.85
20119;BME280;10220;42.716;23.306;2023-04-10T11:57:02;95237.75;;;12.79;79.52
20119;BME280;10220;42.716;23.306;2023-04-10T11:59:29;95234.28;;;13.09;79.67
20119;BME280;10220;42.716;23.306;2023-04-10T12:02:10;95237.44;;;13.11;79.02
20119;BME280;10220;42.716;23.306;2023-04-10T12:04:36;95226.25;;;12.93;81.51
20119;BME280;10220;42.716;23.306;2023-04-10T12:07:02;95229.31;;;12.84;81.67
20119;BME280;10220;42.716;23.306;2023-04-10T12:09:28;95221.91;;;12.63;84.21
20119;BME280;10220;42.716;23.306;2023-04-10T12:11:55;95240.63;;;11.92;89.44
20119;BME280;10220;42.716;23.306;2023-04-10T12:14:31;95202.91;;;11.59;95.90
20119;BME280;10220;42.716;23.306;2023-04-10T12:16:58;95229.88;;;11.88;100.00
20119;BME280;10220;42.716;23.306;2023-04-10T12:19:24;95222.59;;;11.22;100.00
20119;BME280;10220;42.716;23.306;2023-04-10T12:21:50;95252.47;;;10.30;100.00
20119;BME280;10220;42.716;23.306;2023-04-10T12:24:51;95257.00;;;10.08;100.00
20119;BME280;10220;42.716;23.306;2023-04-10T12:27:25;95263.31;;;9.87;100.00
20119;BME280;10220;42.716;23.306;2023-04-10T12:29:54;95262.50;;;9.20;100.00
20119;BME280;10220;42.716;23.306;2023-04-10T12:32:20;95244.47;;;8.93;100.00
20119;BME280;10220;42.716;23.306;2023-04-10T12:34:50;95241.34;;;8.64;100.00
20119;BME280;10220;42.716;23.306;2023-04-10T12:37:16;95257.22;;;8.40;100.00
20119;BME280;10220;42.716;23.306;2023-04-10T12:39:41;95264.13;;;8.12;100.00
20119;BME280;10220;42.716;23.306;2023-04-10T12:42:20;95246.56;;;8.01;100.00
20119;BME280;10220;42.716;23.306;2023-04-10T12:44:55;95258.59;;;7.73;100.00
20119;BME280;10220;42.716;23.306;2023-04-10T12:47:21;95243.88;;;7.67;100.00
20119;BME280;10220;42.716;23.306;2023-04-10T12:50:05;95245.09;;;7.71;100.00
20119;BME280;10220;42.716;23.306;2023-04-10T12:52:32;95209.38;;;7.68;100.00
20119;BME280;10220;42.716;23.306;2023-04-10T12:55:15;95216.41;;;8.02;100.00
20119;BME280;10220;42.716;23.306;2023-04-10T12:57:42;95209.06;;;8.19;100.00
20119;BME280;10220;42.716;23.306;2023-04-10T13:00:09;95195.09;;;8.41;100.00
20119;BME280;10220;42.716;23.306;2023-04-10T13:02:36;95206.44;;;8.74;100.00
20119;BME280;10220;42.716;23.306;2023-04-10T13:05:02;95190.22;;;8.93;100.00
20119;BME280;10220;42.716;23.306;2023-04-10T13:07:28;95197.44;;;9.04;100.00
20119;BME280;10220;42.716;23.306;2023-04-10T13:09:54;95187.16;;;9.17;100.00
20119;BME280;10220;42.716;23.306;2023-04-10T13:12:19;95178.41;;;9.18;100.00
20119;BME280;10220;42.716;23.306;2023-04-10T13:14:45;95183.63;;;9.37;100.00
20119;BME280;10220;42.716;23.306;2023-04-10T13:17:10;95175.13;;;9.62;100.00
20119;BME280;10220;42.716;23.306;2023-04-10T13:19:36;95176.94;;;9.75;100.00
20119;BME280;10220;42.716;23.306;2023-04-10T13:22:01;95165.00;;;9.87;100.00
20119;BME280;10220;42.716;23.306;2023-04-10T13:24:29;95156.44;;;9.80;100.00
20119;BME280;10220;42.716;23.306;2023-04-10T13:26:54;95146.94;;;9.99;100.00
20119;BME280;10220;42.716;23.306;2023-04-10T13:29:21;95145.13;;;10.26;100.00
20119;BME280;10220;42.716;23.306;2023-04-10T13:31:46;95166.84;;;10.18;100.00